createdAt,value
2023-04-03T00:01:37.093Z,25.86
2023-04-03T00:03:16.836Z,25.85
2023-04-03T00:04:56.689Z,25.86
2023-04-03T00:06:36.446Z,25.83
2023-04-03T00:08:16.174Z,25.85
2023-04-03T00:09:55.985Z,25.86
2023-04-03T00:11:35.764Z,25.85
2023-04-03T00:13:15.332Z,25.85
2023-04-03T00:14:55.289Z,25.85
2023-04-03T00:16:35.074Z,25.84
2023-04-03T00:18:14.791Z,25.84
2023-04-03T00:19:54.471Z,25.84
2023-04-03T00:21:34.335Z,25.84
2023-04-03T00:23:14.118Z,25.84
2023-04-03T00:24:53.693Z,25.83
2023-04-03T00:26:33.648Z,25.83
2023-04-03T00:28:13.398Z,25.83
2023-04-03T00:29:53.163Z,25.83
2023-04-03T00:31:32.939Z,25.79
2023-04-03T00:33:12.620Z,25.83
2023-04-03T00:34:52.418Z,25.83
2023-04-03T00:36:32.087Z,25.83
2023-04-03T00:38:11.934Z,25.82
2023-04-03T00:39:51.603Z,25.83
2023-04-03T00:41:31.507Z,25.83
2023-04-03T00:43:11.322Z,25.82
2023-04-03T00:44:50.898Z,25.82
2023-04-03T00:46:30.841Z,25.82
2023-04-03T00:48:10.601Z,25.82
2023-04-03T00:49:50.377Z,25.82
2023-04-03T00:51:30.117Z,25.81
2023-04-03T00:53:09.907Z,25.81
2023-04-03T00:54:49.634Z,25.81
2023-04-03T00:56:29.393Z,25.67
2023-04-03T00:58:09.208Z,25.8
2023-04-03T00:59:48.837Z,25.81
2023-04-03T01:01:28.683Z,25.8
2023-04-03T01:03:08.336Z,25.8
2023-04-03T01:04:48.248Z,25.8
2023-04-03T01:06:27.883Z,25.8
2023-04-03T01:08:07.710Z,25.79
2023-04-03T01:09:47.416Z,25.8
2023-04-03T01:11:27.326Z,25.8
2023-04-03T01:13:06.962Z,25.79
2023-04-03T01:14:46.809Z,25.79
2023-04-03T01:16:26.520Z,25.78
2023-04-03T01:18:06.391Z,25.79
2023-04-03T01:19:46.002Z,25.78
2023-04-03T01:21:25.867Z,25.66
2023-04-03T01:23:05.631Z,25.79
2023-04-03T01:24:45.457Z,25.78
2023-04-03T01:26:25.137Z,25.78
2023-04-03T01:28:05.025Z,25.78
2023-04-03T01:29:44.793Z,25.78
2023-04-03T01:31:24.419Z,25.78
2023-04-03T01:33:04.294Z,25.78
2023-04-03T01:34:44.093Z,25.78
2023-04-03T01:36:23.774Z,25.77
2023-04-03T01:38:03.457Z,25.77
2023-04-03T01:39:43.386Z,25.77
2023-04-03T01:41:22.983Z,25.77
2023-04-03T01:43:02.945Z,25.77
2023-04-03T01:44:42.671Z,25.76
2023-04-03T01:46:22.390Z,25.68
2023-04-03T01:48:02.273Z,25.76
2023-04-03T01:49:41.984Z,25.76
2023-04-03T01:51:21.814Z,25.76
2023-04-03T01:53:01.501Z,25.75
2023-04-03T01:54:41.268Z,25.76
2023-04-03T01:56:21.054Z,25.76
2023-04-03T01:58:00.748Z,25.75
2023-04-03T01:59:40.532Z,25.75
2023-04-03T02:01:20.197Z,25.74
2023-04-03T02:03:00.102Z,25.75
2023-04-03T02:04:39.775Z,25.74
2023-04-03T02:06:19.678Z,25.74
2023-04-03T02:07:59.453Z,25.74
2023-04-03T02:09:39.034Z,25.73
2023-04-03T02:11:18.934Z,25.74
2023-04-03T02:12:58.722Z,25.74
2023-04-03T02:14:38.332Z,25.74
2023-04-03T02:16:18.299Z,25.73
2023-04-03T02:17:57.971Z,25.73
2023-04-03T02:19:37.745Z,25.73
2023-04-03T02:21:17.545Z,25.73
2023-04-03T02:22:57.328Z,25.73
2023-04-03T02:24:37.070Z,25.73
2023-04-03T02:26:16.711Z,25.73
2023-04-03T02:27:56.575Z,25.72
2023-04-03T02:29:36.232Z,25.72
2023-04-03T02:31:16.000Z,25.72
2023-04-03T02:32:55.765Z,25.71
2023-04-03T02:34:35.721Z,25.71
2023-04-03T02:36:15.459Z,25.71
2023-04-03T02:37:55.139Z,25.71
2023-04-03T02:39:34.949Z,25.71
2023-04-03T02:41:14.628Z,25.71
2023-04-03T02:42:54.425Z,25.71
2023-04-03T02:44:34.253Z,25.7
2023-04-03T02:46:13.989Z,25.71
2023-04-03T02:47:53.807Z,25.71
2023-04-03T02:49:33.549Z,25.71
2023-04-03T02:51:13.328Z,25.71
2023-04-03T02:52:53.045Z,25.7
2023-04-03T02:54:32.823Z,25.7
2023-04-03T02:56:12.632Z,25.69
2023-04-03T02:57:52.275Z,25.69
2023-04-03T02:59:32.142Z,25.68
2023-04-03T03:01:11.941Z,25.69
2023-04-03T03:02:51.620Z,25.69
2023-04-03T03:04:31.362Z,25.69
2023-04-03T03:06:11.241Z,25.69
2023-04-03T03:07:51.019Z,25.69
2023-04-03T03:09:30.698Z,25.68
2023-04-03T03:11:10.666Z,25.69
2023-04-03T03:12:50.183Z,25.68
2023-04-03T03:14:29.982Z,25.68
2023-04-03T03:16:09.868Z,25.68
2023-04-03T03:17:49.485Z,25.68
2023-04-03T03:19:29.264Z,25.68
2023-04-03T03:21:09.063Z,25.67
2023-04-03T03:22:48.974Z,25.67
2023-04-03T03:24:28.683Z,25.65
2023-04-03T03:26:08.339Z,25.67
2023-04-03T03:27:48.095Z,25.67
2023-04-03T03:29:27.908Z,25.67
2023-04-03T03:31:07.809Z,25.66
2023-04-03T03:32:47.597Z,25.67
2023-04-03T03:34:27.320Z,25.67
2023-04-03T03:36:07.023Z,25.66
2023-04-03T03:37:46.820Z,25.66
2023-04-03T03:39:26.573Z,25.66
2023-04-03T03:41:06.358Z,25.66
2023-04-03T03:42:46.157Z,25.65
2023-04-03T03:44:25.886Z,25.66
2023-04-03T03:46:05.518Z,25.65
2023-04-03T03:47:45.448Z,25.65
2023-04-03T03:49:25.224Z,25.56
2023-04-03T03:51:04.977Z,25.65
2023-04-03T03:52:44.592Z,25.65
2023-04-03T03:54:24.387Z,25.65
2023-04-03T03:56:04.256Z,25.65
2023-04-03T03:57:44.048Z,25.65
2023-04-03T03:59:23.801Z,25.64
2023-04-03T04:01:03.594Z,25.65
2023-04-03T04:02:43.198Z,25.64
2023-04-03T04:04:23.068Z,25.64
2023-04-03T04:06:02.889Z,25.64
2023-04-03T04:07:42.487Z,25.65
2023-04-03T04:09:22.269Z,25.64
2023-04-03T04:11:02.121Z,25.64
2023-04-03T04:12:41.885Z,25.64
2023-04-03T04:14:21.721Z,25.51
2023-04-03T04:16:01.320Z,25.61
2023-04-03T04:17:41.299Z,25.62
2023-04-03T04:19:20.993Z,25.6
2023-04-03T04:21:00.706Z,25.6
2023-04-03T04:22:40.573Z,25.61
2023-04-03T04:24:20.297Z,25.6
2023-04-03T04:26:00.013Z,25.61
2023-04-03T04:27:39.799Z,25.59
2023-04-03T04:29:19.625Z,25.6
2023-04-03T04:30:59.358Z,25.59
2023-04-03T04:32:39.131Z,25.6
2023-04-03T04:34:18.918Z,25.61
2023-04-03T04:35:58.533Z,25.6
2023-04-03T04:37:38.498Z,25.6
2023-04-03T04:39:18.119Z,25.61
2023-04-03T04:40:57.950Z,25.62
2023-04-03T04:42:37.764Z,25.63
2023-04-03T04:44:17.374Z,25.63
2023-04-03T04:45:57.206Z,25.64
2023-04-03T04:47:37.110Z,25.65
2023-04-03T04:49:16.804Z,25.66
2023-04-03T04:50:56.576Z,25.68
2023-04-03T04:52:36.212Z,25.68
2023-04-03T04:54:16.111Z,25.69
2023-04-03T04:55:55.822Z,25.7
2023-04-03T04:57:35.504Z,25.71
2023-04-03T04:59:15.435Z,25.72
2023-04-03T05:00:55.085Z,25.73
2023-04-03T05:02:34.795Z,25.74
2023-04-03T05:04:14.717Z,25.77
2023-04-03T05:05:54.357Z,25.78
2023-04-03T05:07:34.168Z,25.79
2023-04-03T05:09:14.042Z,25.81
2023-04-03T05:10:53.669Z,25.82
2023-04-03T05:12:33.480Z,25.84
2023-04-03T05:14:13.365Z,25.85
2023-04-03T05:15:53.110Z,25.94
2023-04-03T05:17:32.840Z,25.92
2023-04-03T05:19:12.679Z,25.93
2023-04-03T05:20:52.342Z,25.93
2023-04-03T05:22:32.201Z,25.96
2023-04-03T05:24:11.871Z,25.97
2023-04-03T05:25:51.584Z,25.99
2023-04-03T05:27:31.500Z,26.01
2023-04-03T05:29:11.278Z,25.88
2023-04-03T05:30:51.109Z,26.05
2023-04-03T05:32:30.811Z,26.07
2023-04-03T05:34:10.611Z,26.08
2023-04-03T05:35:50.273Z,26.11
2023-04-03T05:37:30.164Z,26.14
2023-04-03T05:39:09.820Z,26.16
2023-04-03T05:40:49.565Z,26.17
2023-04-03T05:42:29.430Z,26.21
2023-04-03T05:44:09.173Z,26.23
2023-04-03T05:45:48.936Z,26.25
2023-04-03T05:47:28.699Z,26.28
2023-04-03T05:49:08.535Z,26.3
2023-04-03T05:50:48.120Z,26.33
2023-04-03T05:52:28.052Z,26.35
2023-04-03T05:54:07.743Z,26.36
2023-04-03T05:55:47.454Z,26.4
2023-04-03T05:57:27.290Z,26.44
2023-04-03T05:59:07.111Z,26.48
2023-04-03T06:00:46.778Z,26.55
2023-04-03T06:02:26.677Z,26.74
2023-04-03T06:04:06.352Z,26.92
2023-04-03T06:05:46.150Z,27.14
2023-04-03T06:07:25.864Z,27.3
2023-04-03T06:09:05.692Z,27.46
2023-04-03T06:10:45.492Z,27.62
2023-04-03T06:12:25.212Z,27.81
2023-04-03T06:14:04.921Z,27.97
2023-04-03T06:15:44.790Z,27.65
2023-04-03T06:17:24.513Z,29.73
2023-04-03T06:19:04.287Z,29.72
2023-04-03T06:20:44.089Z,29.66
2023-04-03T06:22:23.891Z,29.74
2023-04-03T06:24:03.532Z,29.72
2023-04-03T06:25:43.337Z,29.72
2023-04-03T06:27:23.167Z,29.73
2023-04-03T06:29:02.854Z,29.72
2023-04-03T06:30:42.733Z,29.72
2023-04-03T06:32:22.570Z,29.72
2023-04-03T06:34:02.154Z,29.71
2023-04-03T06:35:42.095Z,29.72
2023-04-03T06:37:21.772Z,29.72
2023-04-03T06:39:01.485Z,29.71
2023-04-03T06:40:41.341Z,29.71
2023-04-03T06:42:21.204Z,29.71
2023-04-03T06:44:00.840Z,29.71
2023-04-03T06:45:40.676Z,29.7
2023-04-03T06:47:20.515Z,29.68
2023-04-03T06:49:00.247Z,29.72
2023-04-03T06:50:39.853Z,29.71
2023-04-03T06:52:19.621Z,29.71
2023-04-03T06:53:59.643Z,29.7
2023-04-03T06:55:39.160Z,29.71
2023-04-03T06:57:18.961Z,29.69
2023-04-03T06:58:58.817Z,29.7
2023-04-03T07:00:38.591Z,29.71
2023-04-03T07:02:18.304Z,29.7
2023-04-03T07:03:58.090Z,29.7
2023-04-03T07:05:37.911Z,29.69
2023-04-03T07:07:17.691Z,29.68
2023-04-03T07:08:57.327Z,29.69
2023-04-03T07:10:37.159Z,29.69
2023-04-03T07:12:16.858Z,29.67
2023-04-03T07:13:56.739Z,29.69
2023-04-03T07:15:36.589Z,29.69
2023-04-03T07:17:16.327Z,29.68
2023-04-03T07:18:55.953Z,29.68
2023-04-03T07:20:35.895Z,29.69
2023-04-03T07:22:15.676Z,29.68
2023-04-03T07:23:55.478Z,29.66
2023-04-03T07:25:35.169Z,29.61
2023-04-03T07:27:14.926Z,29.74
2023-04-03T07:28:54.563Z,29.68
2023-04-03T07:30:34.336Z,29.56
2023-04-03T07:32:14.114Z,29.56
2023-04-03T07:33:54.061Z,29.67
2023-04-03T07:35:33.793Z,29.68
2023-04-03T07:37:13.568Z,29.66
2023-04-03T07:38:53.337Z,29.51
2023-04-03T07:40:33.088Z,29.67
2023-04-03T07:42:12.883Z,29.67
2023-04-03T07:43:52.616Z,29.5
2023-04-03T07:45:32.439Z,29.67
2023-04-03T07:47:12.208Z,29.66
2023-04-03T07:48:52.005Z,29.67
2023-04-03T07:50:31.750Z,29.66
2023-04-03T07:52:11.494Z,29.67
2023-04-03T07:53:51.306Z,29.67
2023-04-03T07:55:30.993Z,29.67
2023-04-03T07:57:10.829Z,29.65
2023-04-03T07:58:50.603Z,29.64
2023-04-03T08:00:30.276Z,29.64
2023-04-03T08:02:10.118Z,29.64
2023-04-03T08:03:49.883Z,29.64
2023-04-03T08:05:29.533Z,29.65
2023-04-03T08:07:09.331Z,29.64
2023-04-03T08:08:49.250Z,29.65
2023-04-03T08:10:28.998Z,29.66
2023-04-03T08:12:08.809Z,29.64
2023-04-03T08:13:48.510Z,29.66
2023-04-03T08:15:28.262Z,29.65
2023-04-03T08:17:08.063Z,29.65
2023-04-03T08:18:47.668Z,29.63
2023-04-03T08:20:27.603Z,29.64
2023-04-03T08:22:07.392Z,29.65
2023-04-03T08:23:47.184Z,29.65
2023-04-03T08:25:26.745Z,29.64
2023-04-03T08:27:06.713Z,29.63
2023-04-03T08:28:46.382Z,29.64
2023-04-03T08:30:26.270Z,29.57
2023-04-03T08:32:05.996Z,29.64
2023-04-03T08:33:45.760Z,29.63
2023-04-03T08:35:25.374Z,29.63
2023-04-03T08:37:05.136Z,29.63
2023-04-03T08:38:45.021Z,29.63
2023-04-03T08:40:24.689Z,29.63
2023-04-03T08:42:04.676Z,29.61
2023-04-03T08:43:44.390Z,29.63
2023-04-03T08:45:24.152Z,29.63
2023-04-03T08:47:03.894Z,29.64
2023-04-03T08:48:43.708Z,29.63
2023-04-03T08:50:23.430Z,29.63
2023-04-03T08:52:03.220Z,29.62
2023-04-03T08:53:43.029Z,29.62
2023-04-03T08:55:22.735Z,29.6
2023-04-03T08:57:02.545Z,29.52
2023-04-03T08:58:42.224Z,29.64
2023-04-03T09:00:21.937Z,29.57
2023-04-03T09:02:01.857Z,29.63
2023-04-03T09:03:41.653Z,29.62
2023-04-03T09:05:21.384Z,29.56
2023-04-03T09:07:01.189Z,29.63
2023-04-03T09:08:40.941Z,29.63
2023-04-03T09:10:20.547Z,29.61
2023-04-03T09:12:00.432Z,29.61
2023-04-03T09:13:40.256Z,29.61
2023-04-03T09:15:19.845Z,29.61
2023-04-03T09:16:59.799Z,28.46
2023-04-03T09:18:39.552Z,28.17
2023-04-03T09:20:19.208Z,28.04
2023-04-03T09:21:59.084Z,27.93
2023-04-03T09:23:38.880Z,27.88
2023-04-03T09:25:18.495Z,27.81
2023-04-03T09:26:58.363Z,27.75
2023-04-03T09:28:38.183Z,27.82
2023-04-03T09:30:17.793Z,27.81
2023-04-03T09:31:57.653Z,27.82
2023-04-03T09:33:37.517Z,27.8
2023-04-03T09:35:17.278Z,27.83
2023-04-03T09:36:57.027Z,27.82
2023-04-03T09:38:36.727Z,27.82
2023-04-03T09:40:16.392Z,27.81
2023-04-03T09:41:56.348Z,27.81
2023-04-03T09:43:36.127Z,27.8
2023-04-03T09:45:15.798Z,27.8
2023-04-03T09:46:55.623Z,27.79
2023-04-03T09:48:35.468Z,27.67
2023-04-03T09:50:15.109Z,27.81
2023-04-03T09:51:55.112Z,27.8
2023-04-03T09:53:34.819Z,27.8
2023-04-03T09:55:14.445Z,27.8
2023-04-03T09:56:54.108Z,27.79
2023-04-03T09:58:34.019Z,27.8
2023-04-03T10:00:13.665Z,27.8
2023-04-03T10:01:53.554Z,27.79
2023-04-03T10:03:33.305Z,27.8
2023-04-03T10:05:13.100Z,27.8
2023-04-03T10:06:52.969Z,27.8
2023-04-03T10:08:32.653Z,27.79
2023-04-03T10:10:12.429Z,27.8
2023-04-03T10:11:52.187Z,27.78
2023-04-03T10:13:31.812Z,27.75
2023-04-03T10:15:11.747Z,27.8
2023-04-03T10:16:51.504Z,27.79
2023-04-03T10:18:31.290Z,27.78
2023-04-03T10:20:11.001Z,27.8
2023-04-03T10:21:50.796Z,27.8
2023-04-03T10:23:30.620Z,27.79
2023-04-03T10:25:10.432Z,27.8
2023-04-03T10:26:50.146Z,27.79
2023-04-03T10:28:29.903Z,27.79
2023-04-03T10:30:09.736Z,27.79
2023-04-03T10:31:49.445Z,27.78
2023-04-03T10:33:29.231Z,27.78
2023-04-03T10:35:08.979Z,27.78
2023-04-03T10:36:48.737Z,27.76
2023-04-03T10:38:28.463Z,27.76
2023-04-03T10:40:08.351Z,27.73
2023-04-03T10:41:48.090Z,27.79
2023-04-03T10:43:27.834Z,27.79
2023-04-03T10:45:07.612Z,27.78
2023-04-03T10:46:47.315Z,27.78
2023-04-03T10:48:27.150Z,27.78
2023-04-03T10:50:06.920Z,27.78
2023-04-03T10:51:46.740Z,27.79
2023-04-03T10:53:26.408Z,27.78
2023-04-03T10:55:06.035Z,27.78
2023-04-03T10:56:46.023Z,27.77
2023-04-03T10:58:25.707Z,27.78
2023-04-03T11:00:05.466Z,27.78
2023-04-03T11:01:45.312Z,27.78
2023-04-03T11:03:25.083Z,27.77
2023-04-03T11:05:04.860Z,27.76
2023-04-03T11:06:44.590Z,27.78
2023-04-03T11:08:24.371Z,27.77
2023-04-03T11:10:04.229Z,27.77
2023-04-03T11:11:43.967Z,27.77
2023-04-03T11:13:23.617Z,27.76
2023-04-03T11:15:03.394Z,27.78
2023-04-03T11:16:43.163Z,27.78
2023-04-03T11:18:22.831Z,27.78
2023-04-03T11:20:02.706Z,27.77
2023-04-03T11:21:42.549Z,27.77
2023-04-03T11:23:22.361Z,27.77
2023-04-03T11:25:02.078Z,27.76
2023-04-03T11:26:41.871Z,27.76
2023-04-03T11:28:21.642Z,27.76
2023-04-03T11:30:01.375Z,27.74
2023-04-03T11:31:41.142Z,27.62
2023-04-03T11:33:20.896Z,27.77
2023-04-03T11:35:00.687Z,27.76
2023-04-03T11:36:40.445Z,27.77
2023-04-03T11:38:20.280Z,27.77
2023-04-03T11:40:00.007Z,27.76
2023-04-03T11:41:39.614Z,27.76
2023-04-03T11:43:19.548Z,27.77
2023-04-03T11:44:59.328Z,27.77
2023-04-03T11:46:39.081Z,27.76
2023-04-03T11:48:18.866Z,27.76
2023-04-03T11:49:58.654Z,27.77
2023-04-03T11:51:38.386Z,27.76
2023-04-03T11:53:18.223Z,27.77
2023-04-03T11:54:57.953Z,27.74
2023-04-03T11:56:37.530Z,27.75
2023-04-03T11:58:17.502Z,27.75
2023-04-03T11:59:57.257Z,27.75
2023-04-03T12:01:36.871Z,27.76
2023-04-03T12:03:16.770Z,27.76
2023-04-03T12:04:56.551Z,27.76
2023-04-03T12:06:36.321Z,27.75
2023-04-03T12:08:16.093Z,27.75
2023-04-03T12:09:55.717Z,27.76
2023-04-03T12:11:35.714Z,27.75
2023-04-03T12:13:15.426Z,27.75
2023-04-03T12:14:55.009Z,27.74
2023-04-03T12:16:34.855Z,27.74
2023-04-03T12:18:14.748Z,27.75
2023-04-03T12:19:54.502Z,27.75
2023-04-03T12:21:34.085Z,27.74
2023-04-03T12:23:14.077Z,27.66
2023-04-03T12:24:53.862Z,27.74
2023-04-03T12:26:33.486Z,27.74
2023-04-03T12:28:13.394Z,27.75
2023-04-03T12:29:53.128Z,27.74
2023-04-03T12:31:32.878Z,27.74
2023-04-03T12:33:12.735Z,27.75
2023-04-03T12:34:52.407Z,27.74
2023-04-03T12:36:32.199Z,27.74
2023-04-03T12:38:11.986Z,27.74
2023-04-03T12:39:51.697Z,27.74
2023-04-03T12:41:31.499Z,27.74
2023-04-03T12:43:11.309Z,27.75
2023-04-03T12:44:50.882Z,27.75
2023-04-03T12:46:30.854Z,27.74
2023-04-03T12:48:10.597Z,27.73
2023-04-03T12:49:50.310Z,27.71
2023-04-03T12:51:30.180Z,27.75
2023-04-03T12:53:09.727Z,27.75
2023-04-03T12:54:49.709Z,27.74
2023-04-03T12:56:29.468Z,27.73
2023-04-03T12:58:09.252Z,27.75
2023-04-03T12:59:49.067Z,27.75
2023-04-03T13:01:28.810Z,27.73
2023-04-03T13:03:08.481Z,27.74
2023-04-03T13:04:48.262Z,27.74
2023-04-03T13:06:28.092Z,27.73
2023-04-03T13:08:07.840Z,27.72
2023-04-03T13:09:47.609Z,27.73
2023-04-03T13:11:27.422Z,27.73
2023-04-03T13:13:07.155Z,27.72
2023-04-03T13:14:46.742Z,27.72
2023-04-03T13:16:26.559Z,27.74
2023-04-03T13:18:06.329Z,27.74
2023-04-03T13:19:46.279Z,27.74
2023-04-03T13:21:26.031Z,27.73
2023-04-03T13:23:05.808Z,27.73
2023-04-03T13:24:45.468Z,27.72
2023-04-03T13:26:25.329Z,27.74
2023-04-03T13:28:05.075Z,27.73
2023-04-03T13:29:44.680Z,27.73
2023-04-03T13:31:24.562Z,27.73
2023-04-03T13:33:04.412Z,27.74
2023-04-03T13:34:44.161Z,27.73
2023-04-03T13:36:23.905Z,27.73
2023-04-03T13:38:03.719Z,27.73
2023-04-03T13:39:43.392Z,27.73
2023-04-03T13:41:23.199Z,27.61
2023-04-03T13:43:03.028Z,27.73
2023-04-03T13:44:42.781Z,27.73
2023-04-03T13:46:22.569Z,27.73
2023-04-03T13:48:02.208Z,27.72
2023-04-03T13:49:42.096Z,27.73
2023-04-03T13:51:21.860Z,27.74
2023-04-03T13:53:01.641Z,27.72
2023-04-03T13:54:41.231Z,27.73
2023-04-03T13:56:21.005Z,27.73
2023-04-03T13:58:00.904Z,27.73
2023-04-03T13:59:40.712Z,27.72
2023-04-03T14:01:20.394Z,27.72
2023-04-03T14:03:00.330Z,27.72
2023-04-03T14:04:39.868Z,27.71
2023-04-03T14:06:19.805Z,27.72
2023-04-03T14:07:59.563Z,27.73
2023-04-03T14:09:39.345Z,27.72
2023-04-03T14:11:19.156Z,27.72
2023-04-03T14:12:58.883Z,27.73
2023-04-03T14:14:38.659Z,27.72
2023-04-03T14:16:18.246Z,27.72
2023-04-03T14:17:58.212Z,27.73
2023-04-03T14:19:37.928Z,27.71
2023-04-03T14:21:17.707Z,27.72
2023-04-03T14:22:57.471Z,27.73
2023-04-03T14:24:37.146Z,27.72
2023-04-03T14:26:17.022Z,27.72
2023-04-03T14:27:56.669Z,27.71
2023-04-03T14:29:36.577Z,27.73
2023-04-03T14:31:16.358Z,27.72
2023-04-03T14:32:56.112Z,27.69
2023-04-03T14:34:35.877Z,27.71
2023-04-03T14:36:15.615Z,27.7
2023-04-03T14:37:55.276Z,27.72
2023-04-03T14:39:35.127Z,27.72
2023-04-03T14:41:14.921Z,27.71
2023-04-03T14:42:54.711Z,27.72
2023-04-03T14:44:34.565Z,27.72
2023-04-03T14:46:14.166Z,27.7
2023-04-03T14:47:54.055Z,27.71
2023-04-03T14:49:33.844Z,27.72
2023-04-03T14:51:13.589Z,27.71
2023-04-03T14:52:53.325Z,27.71
2023-04-03T14:54:33.163Z,27.71
2023-04-03T14:56:12.907Z,27.71
2023-04-03T14:57:52.692Z,27.71
2023-04-03T14:59:32.273Z,27.54
2023-04-03T15:01:12.046Z,27.72
2023-04-03T15:02:51.817Z,27.72
2023-04-03T15:04:31.712Z,27.71
2023-04-03T15:06:11.352Z,27.72
2023-04-03T15:07:51.335Z,27.71
2023-04-03T15:09:31.086Z,27.72
2023-04-03T15:11:10.892Z,27.72
2023-04-03T15:12:50.606Z,27.7
2023-04-03T15:14:30.376Z,27.72
2023-04-03T15:16:10.137Z,27.72
2023-04-03T15:17:49.907Z,27.71
2023-04-03T15:19:29.649Z,27.72
2023-04-03T15:21:09.450Z,27.72
2023-04-03T15:22:49.202Z,27.71
2023-04-03T15:24:29.013Z,27.7
2023-04-03T15:26:08.787Z,27.71
2023-04-03T15:27:48.536Z,27.72
2023-04-03T15:29:28.334Z,27.72
2023-04-03T15:31:08.054Z,27.71
2023-04-03T15:32:47.926Z,27.71
2023-04-03T15:34:27.657Z,27.72
2023-04-03T15:36:07.409Z,27.72
2023-04-03T15:37:47.148Z,27.72
2023-04-03T15:39:26.946Z,27.72
2023-04-03T15:41:06.757Z,27.71
2023-04-03T15:42:46.523Z,27.71
2023-04-03T15:44:26.151Z,27.7
2023-04-03T15:46:06.000Z,27.71
2023-04-03T15:47:45.831Z,27.71
2023-04-03T15:49:25.589Z,27.71
2023-04-03T15:51:05.326Z,27.64
2023-04-03T15:52:45.066Z,27.72
2023-04-03T15:54:24.907Z,27.72
2023-04-03T15:56:04.617Z,27.71
2023-04-03T15:57:44.383Z,27.71
2023-04-03T15:59:24.183Z,27.72
2023-04-03T16:01:03.950Z,27.71
2023-04-03T16:02:43.700Z,27.71
2023-04-03T16:04:23.457Z,27.72
2023-04-03T16:06:03.258Z,27.71
2023-04-03T16:07:43.089Z,27.72
2023-04-03T16:09:22.803Z,27.72
2023-04-03T16:11:02.627Z,27.71
2023-04-03T16:12:42.392Z,27.7
2023-04-03T16:14:21.942Z,27.71
2023-04-03T16:16:01.884Z,27.7
2023-04-03T16:17:41.657Z,27.62
2023-04-03T16:19:21.866Z,27.71
2023-04-03T16:21:01.286Z,27.71
2023-04-03T16:22:40.941Z,27.71
2023-04-03T16:24:20.753Z,27.72
2023-04-03T16:26:00.494Z,27.73
2023-04-03T16:27:40.316Z,27.72
2023-04-03T16:29:20.021Z,27.71
2023-04-03T16:30:59.797Z,27.72
2023-04-03T16:32:39.398Z,27.72
2023-04-03T16:34:19.310Z,27.71
2023-04-03T16:35:59.178Z,27.7
2023-04-03T16:37:38.873Z,27.71
2023-04-03T16:39:18.625Z,27.72
2023-04-03T16:40:58.417Z,27.7
2023-04-03T16:42:38.197Z,27.66
2023-04-03T16:44:17.944Z,27.6
2023-04-03T16:45:57.564Z,27.52
2023-04-03T16:47:37.524Z,27.45
2023-04-03T16:49:17.320Z,27.4
2023-04-03T16:50:57.047Z,27.36
2023-04-03T16:52:36.816Z,27.32
2023-04-03T16:54:16.626Z,27.29
2023-04-03T16:55:56.367Z,27.26
2023-04-03T16:57:36.111Z,27.23
2023-04-03T16:59:15.887Z,27.21
2023-04-03T17:00:55.648Z,27.19
2023-04-03T17:02:35.260Z,27.17
2023-04-03T17:04:15.197Z,27.14
2023-04-03T17:05:54.953Z,27.13
2023-04-03T17:07:34.763Z,27.13
2023-04-03T17:09:14.529Z,27.08
2023-04-03T17:10:54.117Z,27.07
2023-04-03T17:12:34.027Z,27.06
2023-04-03T17:14:13.784Z,27.04
2023-04-03T17:15:53.403Z,27.03
2023-04-03T17:17:33.370Z,27.01
2023-04-03T17:19:13.136Z,26.99
2023-04-03T17:20:52.897Z,26.97
2023-04-03T17:22:32.618Z,26.95
2023-04-03T17:24:12.422Z,26.92
2023-04-03T17:25:52.188Z,26.91
2023-04-03T17:27:31.990Z,26.88
2023-04-03T17:29:11.746Z,26.86
2023-04-03T17:30:51.506Z,26.85
2023-04-03T17:32:31.099Z,26.82
2023-04-03T17:34:10.863Z,26.66
2023-04-03T17:35:50.807Z,26.77
2023-04-03T17:37:30.622Z,26.76
2023-04-03T17:39:10.324Z,26.74
2023-04-03T17:40:50.073Z,26.71
2023-04-03T17:42:29.884Z,26.7
2023-04-03T17:44:09.639Z,26.67
2023-04-03T17:45:49.411Z,26.65
2023-04-03T17:47:29.106Z,26.63
2023-04-03T17:49:08.935Z,26.61
2023-04-03T17:50:48.744Z,26.6
2023-04-03T17:52:28.303Z,26.58
2023-04-03T17:54:08.099Z,26.56
2023-04-03T17:55:47.837Z,26.53
2023-04-03T17:57:27.829Z,26.51
2023-04-03T17:59:07.509Z,26.37
2023-04-03T18:00:47.267Z,26.48
2023-04-03T18:02:26.918Z,26.48
2023-04-03T18:04:06.695Z,26.46
2023-04-03T18:05:46.445Z,26.46
2023-04-03T18:07:26.276Z,26.44
2023-04-03T18:09:05.986Z,26.43
2023-04-03T18:10:45.890Z,26.42
2023-04-03T18:12:25.587Z,26.41
2023-04-03T18:14:05.281Z,26.4
2023-04-03T18:15:45.043Z,26.39
2023-04-03T18:17:24.815Z,26.38
2023-04-03T18:19:04.579Z,26.37
2023-04-03T18:20:44.481Z,26.35
2023-04-03T18:22:24.124Z,26.35
2023-04-03T18:24:03.916Z,26.25
2023-04-03T18:25:43.820Z,26.33
2023-04-03T18:27:23.414Z,26.33
2023-04-03T18:29:03.366Z,26.32
2023-04-03T18:30:43.155Z,26.31
2023-04-03T18:32:22.711Z,26.3
2023-04-03T18:34:02.674Z,26.29
2023-04-03T18:35:42.262Z,26.29
2023-04-03T18:37:22.182Z,26.28
2023-04-03T18:39:01.993Z,26.27
2023-04-03T18:40:41.751Z,26.27
2023-04-03T18:42:21.488Z,26.26
2023-04-03T18:44:01.261Z,26.25
2023-04-03T18:45:41.048Z,26.24
2023-04-03T18:47:20.725Z,26.23
2023-04-03T18:49:00.469Z,26.23
2023-04-03T18:50:40.346Z,26.23
2023-04-03T18:52:20.005Z,26.22
2023-04-03T18:53:59.884Z,26.21
2023-04-03T18:55:39.567Z,26.21
2023-04-03T18:57:19.407Z,26.2
2023-04-03T18:58:59.148Z,26.2
2023-04-03T19:00:38.917Z,26.19
2023-04-03T19:02:18.673Z,26.19
2023-04-03T19:03:58.300Z,26.18
2023-04-03T19:05:38.276Z,26.18
2023-04-03T19:07:17.924Z,26.17
2023-04-03T19:08:57.795Z,26.16
2023-04-03T19:10:37.529Z,26.16
2023-04-03T19:12:17.338Z,26.15
2023-04-03T19:13:57.082Z,26.15
2023-04-03T19:15:36.794Z,26.15
2023-04-03T19:17:16.615Z,26.14
2023-04-03T19:18:56.371Z,26.14
2023-04-03T19:20:36.143Z,26.13
2023-04-03T19:22:15.829Z,26.13
2023-04-03T19:23:55.658Z,26.13
2023-04-03T19:25:35.418Z,26.12
2023-04-03T19:27:15.209Z,26.12
2023-04-03T19:28:54.982Z,26.11
2023-04-03T19:30:34.568Z,26.11
2023-04-03T19:32:14.539Z,26.11
2023-04-03T19:33:54.272Z,26.1
2023-04-03T19:35:34.045Z,26.1
2023-04-03T19:37:13.810Z,26.09
2023-04-03T19:38:53.400Z,26.09
2023-04-03T19:40:33.174Z,26.09
2023-04-03T19:42:13.128Z,26.09
2023-04-03T19:43:52.715Z,26.08
2023-04-03T19:45:33.035Z,26.08
2023-04-03T19:47:12.244Z,26.08
2023-04-03T19:48:52.187Z,26.07
2023-04-03T19:50:31.767Z,26.07
2023-04-03T19:52:11.667Z,26.07
2023-04-03T19:53:51.316Z,26.07
2023-04-03T19:55:31.080Z,26.06
2023-04-03T19:57:10.998Z,26.06
2023-04-03T19:58:50.786Z,26.05
2023-04-03T20:00:30.484Z,26.05
2023-04-03T20:02:10.305Z,26.04
2023-04-03T20:03:49.919Z,26.05
2023-04-03T20:05:29.683Z,26.05
2023-04-03T20:07:09.602Z,26.05
2023-04-03T20:08:49.234Z,26.05
2023-04-03T20:10:28.989Z,26.04
2023-04-03T20:12:08.932Z,26.04
2023-04-03T20:13:48.642Z,26.04
2023-04-03T20:15:28.305Z,26.03
2023-04-03T20:17:08.203Z,26.04
2023-04-03T20:18:47.977Z,26.04
2023-04-03T20:20:27.580Z,26.02
2023-04-03T20:22:07.505Z,26.03
2023-04-03T20:23:47.167Z,26.03
2023-04-03T20:25:27.024Z,26.02
2023-04-03T20:27:06.832Z,25.99
2023-04-03T20:28:46.517Z,26.02
2023-04-03T20:30:26.195Z,26.02
2023-04-03T20:32:06.022Z,26.02
2023-04-03T20:33:45.728Z,26.02
2023-04-03T20:35:25.671Z,26.01
2023-04-03T20:37:05.430Z,26.01
2023-04-03T20:38:45.234Z,26.01
2023-04-03T20:40:24.918Z,26.01
2023-04-03T20:42:04.780Z,26.01
2023-04-03T20:43:44.482Z,26
2023-04-03T20:45:24.198Z,26
2023-04-03T20:47:04.047Z,26
2023-04-03T20:48:43.653Z,25.99
2023-04-03T20:50:23.488Z,25.99
2023-04-03T20:52:03.171Z,25.94
2023-04-03T20:53:43.028Z,25.99
2023-04-03T20:55:22.882Z,25.99
2023-04-03T20:57:02.473Z,25.99
2023-04-03T20:58:42.350Z,25.99
2023-04-03T21:00:22.185Z,25.99
2023-04-03T21:02:01.776Z,25.99
2023-04-03T21:03:41.686Z,25.98
2023-04-03T21:05:21.308Z,25.98
2023-04-03T21:07:01.210Z,25.98
2023-04-03T21:08:41.003Z,25.97
2023-04-03T21:10:20.752Z,25.98
2023-04-03T21:12:00.526Z,25.97
2023-04-03T21:13:40.281Z,25.97
2023-04-03T21:15:20.065Z,25.97
2023-04-03T21:16:59.846Z,25.82
2023-04-03T21:18:39.605Z,25.97
2023-04-03T21:20:19.364Z,25.97
2023-04-03T21:21:59.054Z,25.97
2023-04-03T21:23:38.901Z,25.96
2023-04-03T21:25:18.672Z,25.96
2023-04-03T21:26:58.454Z,25.96
2023-04-03T21:28:38.052Z,25.96
2023-04-03T21:30:17.986Z,25.96